createdAt,value
2023-05-10T00:00:35.939Z,72.8462
2023-05-10T00:01:36.985Z,74.5385
2023-05-10T00:02:38.216Z,71.0769
2023-05-10T00:03:39.263Z,76.3846
2023-05-10T00:04:40.284Z,75.3846
2023-05-10T00:05:41.391Z,72.0000
2023-05-10T00:06:42.442Z,69.6923
2023-05-10T00:07:43.528Z,69.4615
2023-05-10T00:08:44.617Z,73.6154
2023-05-10T00:09:45.705Z,71.3846
2023-05-10T00:10:46.818Z,75.8462
2023-05-10T00:11:47.888Z,73.1538
2023-05-10T00:12:49.052Z,73.3077
2023-05-10T00:13:50.070Z,68.3846
2023-05-10T00:14:51.164Z,64.3077
2023-05-10T00:15:52.245Z,66.0000
2023-05-10T00:16:53.522Z,64.8462
2023-05-10T00:17:54.485Z,68.3077
2023-05-10T00:18:55.548Z,75.9231
2023-05-10T00:19:56.610Z,75.2308
2023-05-10T00:20:57.735Z,71.6923
2023-05-10T00:21:58.798Z,70.1538
2023-05-10T00:22:59.879Z,69.2308
2023-05-10T00:24:00.987Z,69.0000
2023-05-10T00:25:02.076Z,68.0769
2023-05-10T00:26:03.182Z,67.1538
2023-05-10T00:27:04.231Z,71.5385
2023-05-10T00:28:05.327Z,73.2308
2023-05-10T00:29:06.451Z,70.8462
2023-05-10T00:30:07.516Z,70.5385
2023-05-10T00:31:08.610Z,67.9231
2023-05-10T00:32:09.804Z,65.8462
2023-05-10T00:33:10.869Z,68.6923
2023-05-10T00:34:11.899Z,69.0000
2023-05-10T00:35:12.989Z,71.7692
2023-05-10T00:36:14.097Z,73.3846
2023-05-10T00:37:15.169Z,71.8462
2023-05-10T00:38:16.245Z,67.5385
2023-05-10T00:39:17.353Z,64.0000
2023-05-10T00:40:18.712Z,67.5385
2023-05-10T00:41:19.545Z,70.2308
2023-05-10T00:42:20.611Z,64.5385
2023-05-10T00:43:21.704Z,69.4615
2023-05-10T00:44:22.792Z,67.5385
2023-05-10T00:45:23.904Z,67.9231
2023-05-10T00:46:25.019Z,67.2308
2023-05-10T00:47:26.160Z,67.0769
2023-05-10T00:48:27.166Z,70.0769
2023-05-10T00:49:28.250Z,69.6923
2023-05-10T00:50:29.333Z,71.3846
2023-05-10T00:51:30.473Z,71.6154
2023-05-10T00:52:31.537Z,71.7692
2023-05-10T00:53:32.613Z,66.0000
2023-05-10T00:54:33.705Z,67.6154
2023-05-10T00:55:34.793Z,74.6923
2023-05-10T00:56:35.898Z,74.6923
2023-05-10T00:57:36.962Z,67.3077
2023-05-10T00:58:38.056Z,70.3077
2023-05-10T00:59:39.146Z,70.3846
2023-05-10T01:00:40.234Z,70.3077
2023-05-10T01:01:41.391Z,68.5385
2023-05-10T01:02:42.519Z,67.3846
2023-05-10T01:03:43.488Z,67.8462
2023-05-10T01:04:44.642Z,67.0000
2023-05-10T01:05:45.685Z,69.5385
2023-05-10T01:06:46.775Z,69.0769
2023-05-10T01:07:47.847Z,69.7692
2023-05-10T01:08:48.933Z,66.5385
2023-05-10T01:09:50.032Z,69.6923
2023-05-10T01:10:51.109Z,69.4615
2023-05-10T01:11:52.281Z,66.0000
2023-05-10T01:12:53.366Z,64.1538
2023-05-10T01:13:54.376Z,69.0000
2023-05-10T01:14:55.475Z,69.8462
2023-05-10T01:15:56.593Z,70.9231
2023-05-10T01:16:57.700Z,72.3077
2023-05-10T01:17:58.780Z,71.9231
2023-05-10T01:18:59.856Z,68.4615
2023-05-10T01:20:00.945Z,70.0769
2023-05-10T01:21:02.023Z,66.3846
2023-05-10T01:22:03.123Z,60.7692
2023-05-10T01:23:04.196Z,63.6923
2023-05-10T01:24:05.297Z,64.8462
2023-05-10T01:25:06.355Z,65.8462
2023-05-10T01:26:07.444Z,68.2308
2023-05-10T01:27:08.631Z,66.1538
2023-05-10T01:28:09.629Z,69.5385
2023-05-10T01:29:10.727Z,65.9231
2023-05-10T01:30:22.003Z,68.5385
2023-05-10T01:31:13.933Z,64.6154
2023-05-10T01:32:14.018Z,66.8462
2023-05-10T01:33:15.082Z,69.2308
2023-05-10T01:34:16.160Z,65.0000
2023-05-10T01:35:17.251Z,63.3846
2023-05-10T01:36:18.327Z,61.4615
2023-05-10T01:37:19.440Z,65.6923
2023-05-10T01:38:20.525Z,71.4615
2023-05-10T01:39:21.600Z,64.7692
2023-05-10T01:40:22.672Z,64.3077
2023-05-10T01:41:23.762Z,68.5385
2023-05-10T01:42:24.877Z,62.1538
2023-05-10T01:43:25.935Z,64.4615
2023-05-10T01:44:27.038Z,65.9231
2023-05-10T01:45:28.157Z,66.4615
2023-05-10T01:46:29.233Z,66.3077
2023-05-10T01:47:30.354Z,71.6923
2023-05-10T01:48:31.452Z,67.6154
2023-05-10T01:49:32.483Z,70.5385
2023-05-10T01:50:33.574Z,69.9231
2023-05-10T01:51:34.664Z,67.6923
2023-05-10T01:52:35.754Z,65.8462
2023-05-10T01:53:36.836Z,65.4615
2023-05-10T01:54:37.929Z,70.5385
2023-05-10T01:55:39.038Z,68.3077
2023-05-10T01:56:40.121Z,69.3846
2023-05-10T01:57:41.210Z,71.9231
2023-05-10T01:58:42.309Z,67.0000
2023-05-10T01:59:43.402Z,66.6923
2023-05-10T02:00:44.534Z,71.0769
2023-05-10T02:01:45.573Z,70.3077
2023-05-10T02:02:46.709Z,70.4615
2023-05-10T02:03:47.814Z,64.0769
2023-05-10T02:04:48.853Z,64.8462
2023-05-10T02:05:57.479Z,69.5385
2023-05-10T02:06:51.044Z,65.5833
2023-05-10T02:07:52.169Z,72.0769
2023-05-10T02:08:53.212Z,70.5385
2023-05-10T02:09:54.322Z,69.9231
2023-05-10T02:10:55.407Z,70.0000
2023-05-10T02:11:56.494Z,68.0769
2023-05-10T02:12:57.615Z,70.0000
2023-05-10T02:13:58.703Z,68.6154
2023-05-10T02:14:59.795Z,66.7692
2023-05-10T02:16:00.904Z,70.1538
2023-05-10T02:17:02.082Z,67.5385
2023-05-10T02:18:03.151Z,68.9231
2023-05-10T02:19:04.162Z,68.9231
2023-05-10T02:20:05.232Z,67.9231
2023-05-10T02:21:06.387Z,70.3077
2023-05-10T02:22:07.448Z,73.3077
2023-05-10T02:23:08.538Z,73.1538
2023-05-10T02:24:09.619Z,72.0000
2023-05-10T02:25:10.706Z,69.1538
2023-05-10T02:26:11.802Z,69.0000
2023-05-10T02:27:12.896Z,69.6923
2023-05-10T02:28:14.134Z,71.5385
2023-05-10T02:29:15.160Z,71.9231
2023-05-10T02:30:16.367Z,72.3846
2023-05-10T02:31:17.320Z,72.3077
2023-05-10T02:32:18.518Z,70.5385
2023-05-10T02:33:19.532Z,73.0000
2023-05-10T02:34:20.620Z,69.8462
2023-05-10T02:35:21.699Z,67.8462
2023-05-10T02:36:22.784Z,72.0769
2023-05-10T02:37:23.885Z,72.6923
2023-05-10T02:38:24.968Z,72.7692
2023-05-10T02:39:26.043Z,73.3077
2023-05-10T02:40:28.792Z,71.0000
2023-05-10T02:41:28.242Z,71.0769
2023-05-10T02:42:29.328Z,71.0000
2023-05-10T02:43:30.422Z,67.8462
2023-05-10T02:44:31.543Z,69.6923
2023-05-10T02:45:32.595Z,68.2308
2023-05-10T02:46:33.815Z,65.9231
2023-05-10T02:47:34.811Z,69.0769
2023-05-10T02:48:35.891Z,72.1538
2023-05-10T02:49:36.969Z,70.7692
2023-05-10T02:50:38.062Z,70.0769
2023-05-10T02:51:39.156Z,70.4615
2023-05-10T02:52:40.250Z,71.0000
2023-05-10T02:53:41.405Z,68.0000
2023-05-10T02:54:42.411Z,65.6154
2023-05-10T02:55:43.518Z,71.2308
2023-05-10T02:56:44.605Z,70.3846
2023-05-10T02:57:45.711Z,67.6923
2023-05-10T02:58:46.815Z,70.3846
2023-05-10T02:59:47.898Z,67.6923
2023-05-10T03:00:48.952Z,67.0769
2023-05-10T03:01:50.180Z,65.6923
2023-05-10T03:02:51.175Z,65.3846
2023-05-10T03:03:52.289Z,65.6154
2023-05-10T03:04:53.369Z,70.0769
2023-05-10T03:05:54.441Z,67.7692
2023-05-10T03:06:55.505Z,70.0769
2023-05-10T03:07:56.629Z,73.9231
2023-05-10T03:08:57.709Z,73.5385
2023-05-10T03:09:58.788Z,71.3077
2023-05-10T03:10:59.864Z,69.5385
2023-05-10T03:12:00.961Z,72.3077
2023-05-10T03:13:02.083Z,68.6923
2023-05-10T03:14:03.158Z,68.1538
2023-05-10T03:15:04.219Z,76.0769
2023-05-10T03:16:05.336Z,71.6154
2023-05-10T03:17:06.407Z,72.7692
2023-05-10T03:18:07.616Z,76.5385
2023-05-10T03:19:08.579Z,73.3077
2023-05-10T03:20:09.660Z,72.0769
2023-05-10T03:21:10.739Z,67.5385
2023-05-10T03:22:11.853Z,69.0769
2023-05-10T03:23:12.967Z,65.6154
2023-05-10T03:24:14.038Z,66.1538
2023-05-10T03:25:15.119Z,67.0000
2023-05-10T03:26:16.214Z,67.3077
2023-05-10T03:27:17.300Z,69.1538
2023-05-10T03:28:18.395Z,67.9231
2023-05-10T03:29:19.579Z,72.0000
2023-05-10T03:30:20.576Z,68.7692
2023-05-10T03:31:21.685Z,70.4615
2023-05-10T03:32:22.804Z,65.9231
2023-05-10T03:33:23.861Z,70.5385
2023-05-10T03:34:24.998Z,69.5385
2023-05-10T03:35:26.075Z,71.7692
2023-05-10T03:36:27.154Z,71.3846
2023-05-10T03:37:28.261Z,69.0000
2023-05-10T03:38:30.534Z,70.0000
2023-05-10T03:39:30.405Z,70.4615
2023-05-10T03:40:31.474Z,71.9231
2023-05-10T03:41:32.572Z,70.3846
2023-05-10T03:42:33.685Z,70.3846
2023-05-10T03:43:34.781Z,70.6923
2023-05-10T03:44:35.867Z,70.3077
2023-05-10T03:45:36.943Z,67.9231
2023-05-10T03:46:38.085Z,67.9231
2023-05-10T03:47:39.163Z,73.1538
2023-05-10T03:48:40.240Z,69.0000
2023-05-10T03:49:41.368Z,71.0769
2023-05-10T03:50:42.422Z,71.3077
2023-05-10T03:51:43.495Z,68.0000
2023-05-10T03:52:44.620Z,70.8462
2023-05-10T03:53:45.694Z,72.3846
2023-05-10T03:54:46.807Z,71.9231
2023-05-10T03:55:47.861Z,69.6154
2023-05-10T03:56:49.023Z,70.5385
2023-05-10T03:57:50.053Z,70.5385
2023-05-10T03:58:51.123Z,71.0000
2023-05-10T03:59:52.229Z,72.6154
2023-05-10T04:00:53.335Z,74.2308
2023-05-10T04:01:54.490Z,74.0000
2023-05-10T04:02:55.542Z,70.6923
2023-05-10T04:03:56.665Z,69.7692
2023-05-10T04:04:57.689Z,68.2308
2023-05-10T04:05:58.856Z,72.9231
2023-05-10T04:06:59.868Z,71.3846
2023-05-10T04:08:00.968Z,69.3846
2023-05-10T04:09:02.082Z,68.6154
2023-05-10T04:10:03.174Z,67.0000
2023-05-10T04:11:04.230Z,70.0000
2023-05-10T04:12:05.365Z,71.2308
2023-05-10T04:13:06.511Z,69.3846
2023-05-10T04:14:07.503Z,69.6154
2023-05-10T04:15:08.653Z,72.7692
2023-05-10T04:16:09.685Z,69.2308
2023-05-10T04:17:10.817Z,72.0769
2023-05-10T04:18:11.900Z,72.8462
2023-05-10T04:19:12.964Z,70.8462
2023-05-10T04:20:14.193Z,71.1538
2023-05-10T04:21:15.168Z,68.4615
2023-05-10T04:22:16.234Z,65.3846
2023-05-10T04:23:17.300Z,71.1538
2023-05-10T04:24:18.402Z,71.3077
2023-05-10T04:25:19.488Z,72.8462
2023-05-10T04:26:20.577Z,75.4615
2023-05-10T04:27:21.701Z,69.0769
2023-05-10T04:28:22.760Z,67.3077
2023-05-10T04:29:23.863Z,63.2308
2023-05-10T04:30:24.957Z,66.5385
2023-05-10T04:31:26.074Z,75.1538
2023-05-10T04:32:27.191Z,68.6154
2023-05-10T04:33:28.288Z,63.1538
2023-05-10T04:34:29.300Z,63.0000
2023-05-10T04:35:30.385Z,66.7692
2023-05-10T04:36:31.470Z,67.3846
2023-05-10T04:37:32.575Z,67.0000
2023-05-10T04:38:33.728Z,69.4615
2023-05-10T04:39:34.759Z,70.5385
2023-05-10T04:40:35.933Z,68.3077
2023-05-10T04:41:36.919Z,69.4615
2023-05-10T04:42:38.017Z,69.3077
2023-05-10T04:43:39.245Z,64.9231
2023-05-10T04:44:40.207Z,65.0000
2023-05-10T04:45:41.325Z,60.6923
2023-05-10T04:46:42.510Z,67.4615
2023-05-10T04:47:43.521Z,64.7692
2023-05-10T04:48:44.563Z,65.5385
2023-05-10T04:49:45.645Z,64.2308
2023-05-10T04:50:46.771Z,63.0769
2023-05-10T04:51:47.868Z,64.7692
2023-05-10T04:52:48.936Z,61.5385
2023-05-10T04:54:01.446Z,68.7692
2023-05-10T04:54:52.116Z,65.3846
2023-05-10T04:55:52.215Z,63.3846
2023-05-10T04:56:53.294Z,64.3077
2023-05-10T04:57:54.388Z,63.6154
2023-05-10T04:58:55.498Z,61.6154
2023-05-10T04:59:56.544Z,61.5385
2023-05-10T05:00:57.674Z,61.3077
2023-05-10T05:01:58.801Z,60.2308
2023-05-10T05:02:59.930Z,60.1538
2023-05-10T05:04:01.043Z,61.0000
2023-05-10T05:05:02.015Z,61.9231
2023-05-10T05:06:03.168Z,59.3846
2023-05-10T05:07:04.206Z,59.5385
2023-05-10T05:08:05.295Z,54.7692
2023-05-10T05:09:06.396Z,52.7692
2023-05-10T05:10:07.525Z,53.5385
2023-05-10T05:11:08.574Z,59.9231
2023-05-10T05:12:09.706Z,60.7692
2023-05-10T05:13:10.782Z,56.5385
2023-05-10T05:14:11.833Z,57.3846
2023-05-10T05:15:12.967Z,56.7692
2023-05-10T05:16:14.223Z,56.7692
2023-05-10T05:17:15.168Z,58.0000
2023-05-10T05:18:16.233Z,61.3846
2023-05-10T05:19:17.371Z,61.4615
2023-05-10T05:20:18.674Z,60.2308
2023-05-10T05:21:19.516Z,56.5385
2023-05-10T05:22:20.619Z,53.0769
2023-05-10T05:23:21.741Z,54.0000
2023-05-10T05:24:22.786Z,49.3077
2023-05-10T05:25:23.869Z,52.0000
2023-05-10T05:26:24.971Z,54.6154
2023-05-10T05:27:26.053Z,52.9231
2023-05-10T05:28:27.180Z,54.3846
2023-05-10T05:29:28.246Z,56.6923
2023-05-10T05:30:29.342Z,49.6154
2023-05-10T05:31:30.496Z,49.6154
2023-05-10T05:32:31.552Z,48.3077
2023-05-10T05:33:32.617Z,53.3846
2023-05-10T05:34:33.734Z,53.1538
2023-05-10T05:35:34.813Z,49.3846
2023-05-10T05:36:37.619Z,51.4615
2023-05-10T05:37:36.981Z,58.5385
2023-05-10T05:38:38.093Z,54.1538
2023-05-10T05:39:39.229Z,53.6923
2023-05-10T05:40:40.291Z,52.6154
2023-05-10T05:41:41.351Z,50.2308
2023-05-10T05:42:42.458Z,53.7692
2023-05-10T05:43:43.544Z,54.3077
2023-05-10T05:44:44.623Z,51.8462
2023-05-10T05:45:45.777Z,51.1538
2023-05-10T05:46:46.866Z,50.3846
2023-05-10T05:47:47.976Z,50.5385
2023-05-10T05:48:48.987Z,53.7692
2023-05-10T05:49:50.109Z,56.6154
2023-05-10T05:50:51.182Z,51.1538
2023-05-10T05:51:52.270Z,52.3077
2023-05-10T05:52:53.366Z,53.0769
2023-05-10T05:53:54.497Z,49.9231
2023-05-10T05:54:55.549Z,54.3846
2023-05-10T05:55:56.621Z,56.3077
2023-05-10T05:56:59.830Z,49.7692
2023-05-10T05:57:58.829Z,52.0000
2023-05-10T05:58:59.912Z,55.0000
2023-05-10T06:00:01.019Z,51.6923
2023-05-10T06:01:02.099Z,48.4615
2023-05-10T06:02:03.213Z,47.0000
2023-05-10T06:03:04.378Z,51.2308
2023-05-10T06:04:05.444Z,53.9231
2023-05-10T06:05:06.507Z,53.5385
2023-05-10T06:06:07.571Z,50.4615
2023-05-10T06:07:08.704Z,56.4615
2023-05-10T06:08:09.772Z,49.8462
2023-05-10T06:09:10.834Z,57.9231
2023-05-10T06:10:11.929Z,55.0000
2023-05-10T06:11:13.036Z,52.9231
2023-05-10T06:12:14.139Z,49.6154
2023-05-10T06:13:15.245Z,51.0769
2023-05-10T06:14:16.310Z,53.3846
2023-05-10T06:15:17.593Z,55.6923
2023-05-10T06:16:18.503Z,55.6154
2023-05-10T06:17:19.603Z,51.6923
2023-05-10T06:18:20.717Z,53.6154
2023-05-10T06:19:21.785Z,55.3077
2023-05-10T06:20:22.894Z,54.1538
2023-05-10T06:21:24.001Z,54.6923
2023-05-10T06:22:25.063Z,54.2308
2023-05-10T06:23:26.156Z,57.2308
2023-05-10T06:24:27.261Z,56.9231
2023-05-10T06:25:28.360Z,54.5385
2023-05-10T06:26:29.487Z,54.3077
2023-05-10T06:27:30.535Z,57.9231
2023-05-10T06:28:31.710Z,59.2308
2023-05-10T06:29:32.808Z,55.0769
2023-05-10T06:30:33.933Z,52.6923
2023-05-10T06:31:35.011Z,51.0769
2023-05-10T06:32:36.174Z,52.2308
2023-05-10T06:33:37.194Z,55.6923
2023-05-10T06:34:38.254Z,50.3846
2023-05-10T06:35:39.350Z,51.7692
2023-05-10T06:36:40.460Z,53.1538
2023-05-10T06:37:41.603Z,50.8462
2023-05-10T06:38:42.682Z,45.4615
2023-05-10T06:39:43.746Z,43.4615
2023-05-10T06:40:44.834Z,46.6923
2023-05-10T06:41:45.943Z,47.8462
2023-05-10T06:42:47.001Z,40.0769
2023-05-10T06:43:48.133Z,35.3077
2023-05-10T06:44:49.236Z,35.4615
2023-05-10T06:45:50.279Z,34.3077
2023-05-10T06:46:51.446Z,32.8462
2023-05-10T06:47:52.565Z,31.3077
2023-05-10T06:48:53.601Z,28.5385
2023-05-10T06:49:54.678Z,30.1538
2023-05-10T06:50:55.757Z,31.5385
2023-05-10T06:51:56.843Z,34.0000
2023-05-10T06:52:57.960Z,30.2308
2023-05-10T06:53:59.025Z,29.7692
2023-05-10T06:55:00.179Z,29.8462
2023-05-10T06:56:01.212Z,33.3846
2023-05-10T06:57:03.935Z,32.0000
2023-05-10T06:58:03.436Z,28.2308
2023-05-10T06:59:04.575Z,26.5385
2023-05-10T07:00:05.660Z,28.6923
2023-05-10T07:01:06.731Z,31.3077
2023-05-10T07:02:07.848Z,31.6154
2023-05-10T07:03:09.017Z,32.7692
2023-05-10T07:04:09.962Z,31.3846
2023-05-10T07:05:11.037Z,27.6923
2023-05-10T07:06:21.758Z,26.6154
2023-05-10T07:07:14.261Z,25.0769
2023-05-10T07:08:14.371Z,23.9231
2023-05-10T07:09:15.422Z,26.4615
2023-05-10T07:10:16.512Z,24.5385
2023-05-10T07:11:17.628Z,21.3846
2023-05-10T07:12:18.733Z,21.2308
2023-05-10T07:13:19.915Z,24.8462
2023-05-10T07:14:20.933Z,25.6154
2023-05-10T07:15:22.002Z,25.6923
2023-05-10T07:16:23.306Z,24.5385
2023-05-10T07:17:24.216Z,24.3077
2023-05-10T07:18:25.302Z,22.0000
2023-05-10T07:19:26.369Z,20.9231
2023-05-10T07:20:27.490Z,25.6154
2023-05-10T07:21:28.582Z,28.6923
2023-05-10T07:22:29.625Z,24.7692
2023-05-10T07:23:30.762Z,22.0769
2023-05-10T07:24:31.835Z,24.9231
2023-05-10T07:25:32.957Z,20.2308
2023-05-10T07:26:34.058Z,20.6154
2023-05-10T07:27:35.149Z,21.6154
2023-05-10T07:28:36.218Z,23.3846
2023-05-10T07:29:37.301Z,21.1538
2023-05-10T07:30:38.426Z,24.0000
2023-05-10T07:31:39.531Z,20.5385
2023-05-10T07:32:40.755Z,18.4615
2023-05-10T07:33:41.725Z,18.8462
2023-05-10T07:34:42.792Z,19.6154
2023-05-10T07:35:43.919Z,23.1538
2023-05-10T07:36:44.975Z,20.5385
2023-05-10T07:37:46.057Z,17.7692
2023-05-10T07:38:47.171Z,15.0000
2023-05-10T07:39:48.314Z,15.8462
2023-05-10T07:40:49.353Z,17.6154
2023-05-10T07:41:50.469Z,15.1538
2023-05-10T07:42:51.546Z,14.9231
2023-05-10T07:43:52.664Z,12.3846
2023-05-10T07:44:53.739Z,9.3077
2023-05-10T07:45:56.427Z,11.3846
2023-05-10T07:46:55.976Z,20.0000
2023-05-10T07:47:57.100Z,19.0769
2023-05-10T07:48:58.138Z,23.4615
2023-05-10T07:49:59.229Z,25.8462
2023-05-10T07:51:00.310Z,22.6154
2023-05-10T07:52:01.406Z,16.2308
2023-05-10T07:53:02.516Z,17.3077
2023-05-10T07:54:03.631Z,19.0000
2023-05-10T07:55:04.684Z,23.6923
2023-05-10T07:56:05.777Z,29.3846
2023-05-10T07:57:06.901Z,28.1538
2023-05-10T07:58:07.989Z,34.6154
2023-05-10T07:59:11.304Z,35.0000
2023-05-10T08:00:10.174Z,32.6154
2023-05-10T08:01:11.250Z,30.6154
2023-05-10T08:02:12.405Z,31.8462
2023-05-10T08:03:13.584Z,34.3077
2023-05-10T08:04:14.569Z,35.6154
2023-05-10T08:05:16.008Z,28.2308
2023-05-10T08:06:16.720Z,35.5385
2023-05-10T08:07:17.810Z,35.6923
2023-05-10T08:08:18.922Z,33.0769
2023-05-10T08:09:20.153Z,35.4615
2023-05-10T08:10:21.180Z,39.3077
2023-05-10T08:11:22.178Z,36.5385
2023-05-10T08:12:23.297Z,33.5385
2023-05-10T08:13:24.358Z,34.6154
2023-05-10T08:14:25.463Z,32.2308
2023-05-10T08:15:26.540Z,35.0000
2023-05-10T08:16:27.829Z,30.6154
2023-05-10T08:17:28.738Z,29.6154
2023-05-10T08:18:29.877Z,26.8462
2023-05-10T08:19:30.944Z,26.5385
2023-05-10T08:20:32.008Z,27.5385
2023-05-10T08:21:33.116Z,22.1538
2023-05-10T08:22:34.198Z,21.9231
2023-05-10T08:23:35.293Z,27.4615
2023-05-10T08:24:36.418Z,25.7692
2023-05-10T08:25:37.463Z,27.7692
2023-05-10T08:26:38.560Z,29.0000
2023-05-10T08:27:39.644Z,25.3077
2023-05-10T08:28:40.748Z,23.8462
2023-05-10T08:29:49.397Z,23.3846
2023-05-10T08:30:43.938Z,26.3077
2023-05-10T08:31:44.185Z,24.0000
2023-05-10T08:32:45.191Z,28.0000
2023-05-10T08:33:46.234Z,24.6154
2023-05-10T08:34:47.326Z,22.6923
2023-05-10T08:35:48.416Z,22.0000
2023-05-10T08:36:49.511Z,17.1538
2023-05-10T08:37:50.617Z,20.8462
2023-05-10T08:38:52.187Z,18.6154
2023-05-10T08:39:52.815Z,16.6923
2023-05-10T08:40:53.957Z,19.4615
2023-05-10T08:41:55.017Z,17.1538
2023-05-10T08:42:56.087Z,22.3077
2023-05-10T08:43:57.192Z,23.2308
2023-05-10T08:44:58.297Z,19.2308
2023-05-10T08:45:59.418Z,19.6154
2023-05-10T08:47:00.735Z,13.5385
2023-05-10T08:48:01.591Z,12.0769
2023-05-10T08:49:02.710Z,13.7692
2023-05-10T08:50:03.779Z,12.6154
2023-05-10T08:51:04.873Z,11.0769
2023-05-10T08:52:05.973Z,10.4615
2023-05-10T08:53:07.082Z,11.3077
2023-05-10T08:54:08.223Z,9.9231
2023-05-10T08:55:09.318Z,11.3077
2023-05-10T08:56:10.417Z,14.0769
2023-05-10T08:57:11.504Z,10.9231
2023-05-10T08:58:12.624Z,10.0769
2023-05-10T08:59:13.732Z,12.1538
2023-05-10T09:00:14.827Z,10.6923
2023-05-10T09:01:15.966Z,14.5385
2023-05-10T09:02:18.811Z,10.3846
2023-05-10T09:03:18.170Z,7.8462
2023-05-10T09:04:19.325Z,8.8462
2023-05-10T09:05:20.620Z,11.3846
2023-05-10T09:06:21.490Z,9.3077
2023-05-10T09:07:22.567Z,10.5385
2023-05-10T09:08:23.718Z,10.1538
2023-05-10T09:09:24.776Z,10.5385
2023-05-10T09:10:26.013Z,10.0769
2023-05-10T09:11:26.975Z,6.1538
2023-05-10T09:12:28.068Z,2.3846
2023-05-10T09:13:29.210Z,6.4615
2023-05-10T09:14:30.334Z,12.6154
2023-05-10T09:15:31.462Z,11.5385
2023-05-10T09:16:32.517Z,7.4615
2023-05-10T09:17:33.680Z,9.9231
2023-05-10T09:18:34.833Z,8.9231
2023-05-10T09:19:35.834Z,8.4615
2023-05-10T09:20:36.933Z,13.0000
2023-05-10T09:21:38.051Z,10.3846
2023-05-10T09:22:39.161Z,13.5385
2023-05-10T09:23:40.235Z,9.7692
2023-05-10T09:24:41.341Z,8.3846
2023-05-10T09:25:42.482Z,9.9231
2023-05-10T09:26:43.574Z,8.1538
2023-05-10T09:27:44.681Z,9.6923
2023-05-10T09:28:45.832Z,7.0769
2023-05-10T09:29:46.889Z,12.3846
2023-05-10T09:30:48.022Z,13.4615
2023-05-10T09:31:49.099Z,12.9231
2023-05-10T09:32:50.346Z,12.1538
2023-05-10T09:33:51.300Z,14.1538
2023-05-10T09:34:52.517Z,13.2308
2023-05-10T09:35:53.562Z,8.6154
2023-05-10T09:36:54.637Z,11.7692
2023-05-10T09:37:55.743Z,13.2308
2023-05-10T09:38:56.832Z,11.2308
2023-05-10T09:39:57.957Z,15.2308
2023-05-10T09:40:59.067Z,15.3846
2023-05-10T09:42:00.165Z,8.1538
2023-05-10T09:43:01.275Z,6.0000
2023-05-10T09:44:02.381Z,6.3846
2023-05-10T09:45:03.487Z,13.3077
2023-05-10T09:46:04.605Z,9.9231
2023-05-10T09:47:05.727Z,9.9231
2023-05-10T09:48:06.915Z,6.6154
2023-05-10T09:49:07.910Z,3.3846
2023-05-10T09:50:09.037Z,7.0769
2023-05-10T09:51:10.140Z,4.6154
2023-05-10T09:52:11.226Z,5.0769
2023-05-10T09:53:12.403Z,4.2308
2023-05-10T09:54:13.463Z,7.3846
2023-05-10T09:55:14.718Z,6.1538
2023-05-10T09:56:15.670Z,3.0000
2023-05-10T09:57:16.790Z,4.0769
2023-05-10T09:58:17.907Z,2.3077
2023-05-10T09:59:19.012Z,4.8462
2023-05-10T10:00:20.195Z,5.3077
2023-05-10T10:01:21.252Z,3.6154
2023-05-10T10:02:22.387Z,6.0000
2023-05-10T10:03:23.434Z,4.8462
2023-05-10T10:04:24.622Z,7.3846
2023-05-10T10:05:25.676Z,10.7692
2023-05-10T10:06:29.986Z,4.3846
2023-05-10T10:07:27.876Z,3.3846
2023-05-10T10:08:28.969Z,4.7692
2023-05-10T10:09:30.067Z,7.7692
2023-05-10T10:10:31.172Z,5.9231
2023-05-10T10:11:32.289Z,3.3077
2023-05-10T10:12:33.485Z,6.1538
2023-05-10T10:13:34.503Z,4.0000
2023-05-10T10:14:35.596Z,10.6154
2023-05-10T10:15:36.831Z,5.1538
2023-05-10T10:16:43.653Z,7.2308
2023-05-10T10:17:39.961Z,2.3077
2023-05-10T10:18:40.046Z,2.6923
2023-05-10T10:19:41.148Z,4.2308
2023-05-10T10:20:42.217Z,1.8462
2023-05-10T10:21:43.370Z,6.1538
2023-05-10T10:22:44.428Z,8.0769
2023-05-10T10:23:45.532Z,6.5385
2023-05-10T10:24:46.627Z,6.3077
2023-05-10T10:25:47.719Z,8.1538
2023-05-10T10:26:48.848Z,4.0000
2023-05-10T10:27:49.931Z,6.3077
2023-05-10T10:28:51.084Z,9.5385
2023-05-10T10:29:52.205Z,9.3846
2023-05-10T10:30:53.311Z,5.3077
2023-05-10T10:31:54.549Z,3.8462
2023-05-10T10:32:55.507Z,1.9231
2023-05-10T10:33:56.584Z,4.7692
2023-05-10T10:34:57.655Z,7.5385
2023-05-10T10:35:58.761Z,2.6154
2023-05-10T10:36:59.866Z,3.3846
2023-05-10T10:38:00.989Z,4.4615
2023-05-10T10:39:02.048Z,6.0769
2023-05-10T10:40:03.128Z,5.2308
2023-05-10T10:41:04.244Z,3.1538
2023-05-10T10:42:05.343Z,2.0769
2023-05-10T10:43:06.413Z,2.8462
2023-05-10T10:44:07.520Z,3.6923
2023-05-10T10:45:08.620Z,3.3846
2023-05-10T10:46:09.720Z,5.6923
2023-05-10T10:47:11.044Z,3.2308
2023-05-10T10:48:11.909Z,1.1538
2023-05-10T10:49:13.019Z,6.8462
2023-05-10T10:50:14.925Z,6.3077
2023-05-10T10:51:15.183Z,1.9231
2023-05-10T10:52:16.323Z,3.1538
2023-05-10T10:53:17.414Z,4.3077
2023-05-10T10:54:18.519Z,7.3077
2023-05-10T10:55:19.657Z,9.9231
2023-05-10T10:56:20.675Z,7.0769
2023-05-10T10:57:21.769Z,12.9231
2023-05-10T10:58:22.856Z,8.6154
2023-05-10T10:59:23.989Z,5.4615
2023-05-10T11:00:25.067Z,4.8462
2023-05-10T11:01:26.165Z,8.2308
2023-05-10T11:02:27.715Z,9.3846
2023-05-10T11:03:28.361Z,7.9231
2023-05-10T11:04:29.511Z,10.4615
2023-05-10T11:05:30.547Z,6.8462
2023-05-10T11:06:31.656Z,9.6154
2023-05-10T11:07:32.768Z,5.9231
2023-05-10T11:08:35.714Z,7.4615
2023-05-10T11:09:34.920Z,4.0000
2023-05-10T11:10:36.028Z,6.7692
2023-05-10T11:11:37.117Z,1.0000
2023-05-10T11:12:38.220Z,8.0769
2023-05-10T11:13:39.378Z,8.2308
2023-05-10T11:14:40.403Z,10.9231
2023-05-10T11:15:41.581Z,5.7692
2023-05-10T11:16:42.597Z,4.3846
2023-05-10T11:17:43.739Z,3.3077
2023-05-10T11:18:44.933Z,10.0769
2023-05-10T11:19:45.887Z,5.6923
2023-05-10T11:20:46.998Z,6.6923
2023-05-10T11:21:48.087Z,4.3077
2023-05-10T11:22:49.185Z,5.1538
2023-05-10T11:23:50.275Z,6.3077
2023-05-10T11:24:51.371Z,5.5385
2023-05-10T11:25:52.467Z,3.7692
2023-05-10T11:26:53.567Z,4.0000
2023-05-10T11:27:54.703Z,5.7692
2023-05-10T11:28:55.750Z,3.7692
2023-05-10T11:29:56.861Z,8.0000
2023-05-10T11:30:57.926Z,8.9231
2023-05-10T11:31:59.023Z,10.0000
2023-05-10T11:33:00.192Z,5.7692
2023-05-10T11:34:01.223Z,7.7692
2023-05-10T11:35:02.308Z,4.8462
2023-05-10T11:36:03.381Z,5.6154
2023-05-10T11:37:04.493Z,9.6923
2023-05-10T11:38:05.591Z,12.4615
2023-05-10T11:39:06.671Z,7.9231
2023-05-10T11:40:07.775Z,12.3077
2023-05-10T11:41:08.855Z,6.6154
2023-05-10T11:42:10.049Z,7.5385
2023-05-10T11:43:11.060Z,11.8462
2023-05-10T11:44:12.160Z,14.0769
2023-05-10T11:45:13.242Z,15.3077
2023-05-10T11:46:14.344Z,17.5385
2023-05-10T11:47:15.423Z,17.9231
2023-05-10T11:48:16.613Z,13.7692
2023-05-10T11:49:17.618Z,11.5385
2023-05-10T11:50:18.993Z,8.6923
2023-05-10T11:51:19.800Z,4.7692
2023-05-10T11:52:20.922Z,9.1538
2023-05-10T11:53:23.270Z,7.0769
2023-05-10T11:54:23.124Z,8.6923
2023-05-10T11:55:24.247Z,9.2308
2023-05-10T11:56:25.333Z,6.6154
2023-05-10T11:57:26.382Z,6.3077
2023-05-10T11:58:27.484Z,7.3846
2023-05-10T11:59:28.607Z,11.2308
2023-05-10T12:00:29.693Z,2.7692
2023-05-10T12:01:30.748Z,1.8462
2023-05-10T12:02:31.904Z,3.0000
2023-05-10T12:03:33.094Z,0.0000
2023-05-10T12:04:34.067Z,0.6154
2023-05-10T12:05:35.186Z,0.4615
2023-05-10T12:06:36.234Z,2.3077
2023-05-10T12:07:37.322Z,3.3846
2023-05-10T12:08:38.411Z,4.3846
2023-05-10T12:09:44.037Z,5.3077
2023-05-10T12:10:41.642Z,6.6923
2023-05-10T12:11:44.026Z,7.0769
2023-05-10T12:12:42.804Z,1.6154
2023-05-10T12:13:44.049Z,1.0769
2023-05-10T12:14:44.977Z,1.5385
2023-05-10T12:15:46.060Z,1.4615
2023-05-10T12:16:47.343Z,1.3077
2023-05-10T12:17:48.336Z,3.0000
2023-05-10T12:18:49.378Z,2.6154
2023-05-10T12:19:50.457Z,2.5385
2023-05-10T12:20:51.533Z,2.0000
2023-05-10T12:21:52.649Z,3.4615
2023-05-10T12:22:53.716Z,4.6154
2023-05-10T12:23:54.886Z,7.1538